Time;durP1;ratioP1;P1;durP2;ratioP2;P2;SDS_P1;SDS_P2;PMS_P1;PMS_P2;Temp;Humidity;BMP_temperature;BMP_pressure;BME280_temperature;BME280_humidity;BME280_pressure;Samples;Min_cycle;Max_cycle;Signal;HPM_P1;HPM_P2
2022/12/19 00:00:16;;;;;;;1.80;1.70;;;;;;;;;;7375877;19;20121;-64
2022/12/19 00:02:41;;;;;;;1.30;1.20;;;;;;;;;;7368160;19;20157;-64
2022/12/19 00:05:07;;;;;;;3.03;1.73;;;;;;;;;;7367804;19;20121;-64
2022/12/19 00:07:32;;;;;;;2.60;1.93;;;;;;;;;;7367877;19;20144;-64
2022/12/19 00:09:57;;;;;;;1.80;1.70;;;;;;;;;;7378667;19;20117;-64
2022/12/19 00:12:23;;;;;;;2.13;1.50;;;;;;;;;;7376846;19;20145;-64
2022/12/19 00:14:48;;;;;;;2.03;1.83;;;;;;;;;;7370756;19;20133;-64
2022/12/19 00:17:13;;;;;;;2.80;1.47;;;;;;;;;;7369100;19;20192;-64
2022/12/19 00:19:38;;;;;;;1.50;1.50;;;;;;;;;;7381772;19;20248;-64
2022/12/19 00:22:04;;;;;;;1.07;1.07;;;;;;;;;;7369162;19;20206;-64
2022/12/19 00:24:29;;;;;;;2.83;1.40;;;;;;;;;;7377345;19;20845;-64
2022/12/19 00:26:55;;;;;;;1.90;1.80;;;;;;;;;;7373469;19;20131;-64
2022/12/19 00:29:20;;;;;;;1.80;1.13;;;;;;;;;;7381239;19;20128;-64
2022/12/19 00:31:46;;;;;;;1.13;1.07;;;;;;;;;;7386734;19;20124;-64
2022/12/19 00:34:11;;;;;;;1.27;1.20;;;;;;;;;;7392231;19;20125;-64
2022/12/19 00:36:36;;;;;;;1.37;1.27;;;;;;;;;;7391022;19;20125;-64
2022/12/19 00:39:03;;;;;;;2.63;1.97;;;;;;;;;;7390690;19;20696;-64
2022/12/19 00:41:30;;;;;;;2.03;1.90;;;;;;;;;;7381956;19;20137;-64
2022/12/19 00:44:04;;;;;;;2.80;2.20;;;;;;;;;;7383963;19;20149;-64
2022/12/19 00:46:31;;;;;;;2.93;2.23;;;;;;;;;;7384265;19;20125;-64
2022/12/19 00:48:56;;;;;;;2.37;2.17;;;;;;;;;;7385471;19;20143;-64
2022/12/19 00:51:24;;;;;;;1.63;1.53;;;;;;;;;;7384169;19;20129;-64
2022/12/19 00:53:50;;;;;;;0.80;0.80;;;;;;;;;;7387137;19;20643;-64
2022/12/19 00:56:21;;;;;;;2.73;1.40;;;;;;;;;;7383310;19;20618;-64
2022/12/19 00:58:47;;;;;;;1.43;1.33;;;;;;;;;;7382250;19;20128;-64
2022/12/19 01:01:18;;;;;;;1.43;1.33;;;;;;;;;;7381263;19;20145;-64
2022/12/19 01:03:43;;;;;;;1.87;1.77;;;;;;;;;;7374527;19;20181;-63
2022/12/19 01:06:09;;;;;;;3.23;2.57;;;;;;;;;;7379298;19;20117;-63
2022/12/19 01:08:35;;;;;;;3.43;1.50;;;;;;;;;;7386327;19;20127;-63
2022/12/19 01:11:01;;;;;;;1.77;1.67;;;;;;;;;;7382143;19;20489;-63
2022/12/19 01:13:28;;;;;;;1.67;1.57;;;;;;;;;;7379534;19;20152;-63
2022/12/19 01:15:53;;;;;;;1.97;1.77;;;;;;;;;;7380120;19;20132;-63
2022/12/19 01:18:19;;;;;;;5.23;2.80;;;;;;;;;;7367157;19;20132;-63
2022/12/19 01:20:47;;;;;;;2.00;1.87;;;;;;;;;;7372827;19;20121;-63
2022/12/19 01:23:15;;;;;;;2.10;2.00;;;;;;;;;;7370575;19;20153;-63
2022/12/19 01:25:41;;;;;;;1.63;1.53;;;;;;;;;;7379821;19;20176;-63
2022/12/19 01:28:07;;;;;;;1.83;1.73;;;;;;;;;;7377655;19;20132;-64
2022/12/19 01:30:33;;;;;;;2.07;1.57;;;;;;;;;;7381125;19;20117;-63
2022/12/19 01:32:59;;;;;;;1.73;1.63;;;;;;;;;;7386073;19;20157;-63
2022/12/19 01:35:25;;;;;;;2.63;1.70;;;;;;;;;;7387714;19;20116;-63
2022/12/19 01:37:51;;;;;;;1.80;1.37;;;;;;;;;;7384395;19;20192;-63
2022/12/19 01:40:17;;;;;;;2.17;1.97;;;;;;;;;;7387896;19;20117;-63
2022/12/19 01:42:43;;;;;;;4.80;2.17;;;;;;;;;;7385751;19;20497;-63
2022/12/19 01:45:08;;;;;;;1.03;1.03;;;;;;;;;;7381521;19;20117;-63
2022/12/19 01:47:39;;;;;;;0.97;0.97;;;;;;;;;;7384635;19;20125;-63
2022/12/19 01:50:07;;;;;;;2.17;1.97;;;;;;;;;;7375008;19;20844;-63
2022/12/19 01:52:33;;;;;;;1.90;1.80;;;;;;;;;;7386249;19;20188;-63
2022/12/19 01:54:58;;;;;;;1.90;1.57;;;;;;;;;;7381169;19;20125;-63
2022/12/19 01:57:23;;;;;;;1.90;1.80;;;;;;;;;;7381545;19;20144;-63
2022/12/19 01:59:51;;;;;;;6.63;2.33;;;;;;;;;;7384510;19;20109;-63
2022/12/19 02:02:36;;;;;;;1.67;1.57;;;;;;;;;;7370619;19;20225;-63
2022/12/19 02:05:03;;;;;;;0.87;0.87;;;;;;;;;;7382732;19;20611;-64
2022/12/19 02:07:28;;;;;;;1.50;1.37;;;;;;;;;;7374694;19;20153;-64
2022/12/19 02:09:55;;;;;;;1.63;1.50;;;;;;;;;;7377261;19;20685;-64
2022/12/19 02:12:26;;;;;;;1.90;1.77;;;;;;;;;;7377791;19;20141;-65
2022/12/19 02:14:52;;;;;;;1.83;1.73;;;;;;;;;;7380737;19;20145;-64
2022/12/19 02:17:23;;;;;;;7.70;2.20;;;;;;;;;;7388894;19;20117;-64
2022/12/19 02:20:13;;;;;;;1.60;1.50;;;;;;;;;;7381990;19;20132;-64
2022/12/19 02:22:49;;;;;;;1.87;1.57;;;;;;;;;;7392007;19;20153;-64
2022/12/19 02:25:33;;;;;;;1.50;1.40;;;;;;;;;;7386745;19;20135;-64
2022/12/19 02:28:20;;;;;;;1.70;1.60;;;;;;;;;;7379902;19;20125;-64
2022/12/19 02:31:27;;;;;;;6.97;2.17;;;;;;;;;;7382938;19;20129;-64
2022/12/19 02:34:11;;;;;;;1.63;1.53;;;;;;;;;;7380181;19;20165;-64
2022/12/19 02:36:39;;;;;;;2.07;1.93;;;;;;;;;;7389785;19;20144;-64
2022/12/19 02:39:09;;;;;;;1.60;1.50;;;;;;;;;;7389780;19;20144;-64
2022/12/19 02:41:43;;;;;;;1.83;1.73;;;;;;;;;;7393648;19;20527;-64
2022/12/19 02:44:19;;;;;;;1.67;1.17;;;;;;;;;;7391357;19;20149;-64
2022/12/19 02:46:46;;;;;;;2.40;1.73;;;;;;;;;;7391340;19;20116;-64
2022/12/19 02:49:12;;;;;;;1.97;1.60;;;;;;;;;;7393986;19;20121;-64
2022/12/19 02:51:37;;;;;;;2.27;1.30;;;;;;;;;;7394462;19;20119;-64
2022/12/19 02:54:03;;;;;;;1.47;1.27;;;;;;;;;;7390522;19;20551;-64
2022/12/19 02:56:42;;;;;;;2.23;1.63;;;;;;;;;;7395581;19;20123;-64
2022/12/19 02:59:44;;;;;;;1.60;1.50;;;;;;;;;;7392844;19;20129;-64
2022/12/19 03:02:29;;;;;;;4.03;2.47;;;;;;;;;;7394383;19;20490;-64
2022/12/19 03:05:09;;;;;;;1.17;1.07;;;;;;;;;;7390407;19;20145;-64
2022/12/19 03:07:42;;;;;;;1.13;1.10;;;;;;;;;;7395919;19;20140;-64
2022/12/19 03:10:28;;;;;;;5.20;1.93;;;;;;;;;;7384263;19;20452;-64
2022/12/19 03:12:57;;;;;;;1.13;1.13;;;;;;;;;;7387883;19;20153;-64
2022/12/19 03:15:23;;;;;;;1.10;1.07;;;;;;;;;;7380353;19;20649;-64
2022/12/19 03:17:49;;;;;;;2.27;2.17;;;;;;;;;;7386391;19;20136;-64
2022/12/19 03:20:20;;;;;;;2.70;1.93;;;;;;;;;;7386354;19;20131;-64
2022/12/19 03:22:45;;;;;;;3.27;2.13;;;;;;;;;;7388642;19;20161;-64
2022/12/19 03:25:11;;;;;;;1.07;1.07;;;;;;;;;;7381924;19;20127;-64
2022/12/19 03:27:37;;;;;;;1.53;1.43;;;;;;;;;;7388069;19;20606;-64
2022/12/19 03:30:06;;;;;;;2.47;1.70;;;;;;;;;;7385983;19;20137;-64
2022/12/19 03:32:32;;;;;;;2.37;1.63;;;;;;;;;;7379279;19;20271;-64
2022/12/19 03:35:05;;;;;;;2.73;2.53;;;;;;;;;;7383898;19;20515;-64
2022/12/19 03:37:33;;;;;;;2.03;1.83;;;;;;;;;;7387833;19;20133;-64
2022/12/19 03:40:01;;;;;;;1.70;1.60;;;;;;;;;;7386966;19;20212;-63
2022/12/19 03:45:14;;;;;;;1.30;1.20;;;;;;;;;;7373545;19;20128;-63
2022/12/19 03:48:01;;;;;;;2.93;1.90;;;;;;;;;;7379911;19;20137;-63
2022/12/19 03:50:31;;;;;;;2.30;2.07;;;;;;;;;;7377711;19;20177;-63
2022/12/19 03:53:10;;;;;;;2.50;2.33;;;;;;;;;;7380412;19;20167;-63
2022/12/19 03:55:46;;;;;;;2.60;2.10;;;;;;;;;;7382615;19;20128;-63
2022/12/19 03:58:16;;;;;;;3.03;1.43;;;;;;;;;;7383036;19;20148;-63
2022/12/19 04:00:46;;;;;;;3.60;2.90;;;;;;;;;;7382861;19;20143;-63
2022/12/19 04:03:12;;;;;;;1.77;1.67;;;;;;;;;;7377671;19;20170;-63
2022/12/19 04:05:40;;;;;;;3.77;1.93;;;;;;;;;;7375400;19;20184;-63
2022/12/19 04:08:06;;;;;;;1.37;1.27;;;;;;;;;;7382009;19;20121;-64
2022/12/19 04:10:37;;;;;;;3.63;1.63;;;;;;;;;;7379574;19;20117;-63
2022/12/19 04:13:07;;;;;;;7.37;1.73;;;;;;;;;;7378075;19;20174;-63
2022/12/19 04:15:40;;;;;;;1.20;1.10;;;;;;;;;;7382674;19;20125;-63
2022/12/19 04:18:06;;;;;;;3.17;2.30;;;;;;;;;;7385160;19;20121;-63
2022/12/19 04:20:32;;;;;;;2.37;2.17;;;;;;;;;;7380560;19;20636;-63
2022/12/19 04:23:27;;;;;;;2.13;1.97;;;;;;;;;;7379149;19;20503;-64
2022/12/19 04:25:57;;;;;;;1.10;1.10;;;;;;;;;;7375654;19;20133;-63
2022/12/19 04:28:31;;;;;;;1.47;1.37;;;;;;;;;;7378983;19;20538;-64
2022/12/19 04:30:57;;;;;;;3.57;1.97;;;;;;;;;;7384376;19;20124;-64
2022/12/19 04:33:22;;;;;;;0.80;0.77;;;;;;;;;;7384895;19;20144;-63
2022/12/19 04:35:47;;;;;;;1.57;1.47;;;;;;;;;;7375818;19;20125;-64
2022/12/19 04:38:12;;;;;;;4.03;0.70;;;;;;;;;;7381794;19;20121;-64
2022/12/19 04:40:38;;;;;;;1.30;1.10;;;;;;;;;;7390775;19;20128;-63
2022/12/19 04:43:03;;;;;;;1.60;1.50;;;;;;;;;;7389402;19;20149;-63
2022/12/19 04:45:29;;;;;;;2.57;1.63;;;;;;;;;;7389501;19;20152;-64
2022/12/19 04:47:54;;;;;;;1.40;1.20;;;;;;;;;;7392965;19;20156;-64
2022/12/19 04:50:19;;;;;;;1.57;1.17;;;;;;;;;;7390049;19;20482;-64
2022/12/19 04:52:45;;;;;;;1.83;0.87;;;;;;;;;;7391200;19;20154;-63
2022/12/19 04:55:10;;;;;;;1.97;1.67;;;;;;;;;;7389489;19;20125;-63
2022/12/19 04:57:35;;;;;;;3.40;1.50;;;;;;;;;;7390355;19;20152;-63
2022/12/19 05:00:03;;;;;;;1.93;1.83;;;;;;;;;;7390087;19;20205;-63
2022/12/19 05:02:29;;;;;;;1.20;1.20;;;;;;;;;;7389607;19;20161;-63
2022/12/19 05:04:54;;;;;;;2.83;1.90;;;;;;;;;;7389483;19;20594;-63
2022/12/19 05:07:19;;;;;;;1.73;1.63;;;;;;;;;;7392328;19;20142;-63
2022/12/19 05:09:45;;;;;;;0.77;0.77;;;;;;;;;;7387735;19;20133;-64
2022/12/19 05:12:10;;;;;;;0.83;0.80;;;;;;;;;;7391707;19;20149;-64
2022/12/19 05:14:35;;;;;;;1.50;1.40;;;;;;;;;;7387235;19;21188;-64
2022/12/19 05:17:01;;;;;;;1.20;1.03;;;;;;;;;;7380046;19;20150;-63
2022/12/19 05:19:26;;;;;;;1.60;1.23;;;;;;;;;;7386146;19;20113;-63
2022/12/19 05:21:51;;;;;;;1.63;1.43;;;;;;;;;;7378798;19;20129;-64
2022/12/19 05:24:17;;;;;;;1.53;1.43;;;;;;;;;;7384147;19;20121;-64
2022/12/19 05:26:42;;;;;;;1.63;1.33;;;;;;;;;;7378091;19;20125;-64
2022/12/19 05:29:07;;;;;;;3.37;2.07;;;;;;;;;;7379343;19;20131;-64
2022/12/19 05:31:33;;;;;;;2.60;2.40;;;;;;;;;;7381722;19;20121;-64
2022/12/19 05:33:58;;;;;;;2.50;2.30;;;;;;;;;;7381005;19;20144;-64
2022/12/19 05:36:23;;;;;;;0.63;0.63;;;;;;;;;;7381016;19;23197;-64
2022/12/19 05:38:48;;;;;;;2.33;1.67;;;;;;;;;;7383768;19;20136;-63
2022/12/19 05:41:16;;;;;;;2.50;1.53;;;;;;;;;;7386203;19;20125;-64
2022/12/19 05:43:43;;;;;;;1.00;1.00;;;;;;;;;;7382215;19;20614;-64
2022/12/19 05:46:08;;;;;;;1.37;1.27;;;;;;;;;;7380066;19;20172;-64
2022/12/19 05:48:34;;;;;;;1.17;1.03;;;;;;;;;;7379805;19;20138;-63
2022/12/19 05:50:59;;;;;;;0.70;0.70;;;;;;;;;;7381992;19;20124;-63
2022/12/19 05:53:26;;;;;;;1.40;1.30;;;;;;;;;;7379189;19;20163;-64
2022/12/19 05:56:01;;;;;;;1.20;1.20;;;;;;;;;;7386303;19;20460;-64
2022/12/19 05:58:27;;;;;;;0.97;0.90;;;;;;;;;;7385525;19;20141;-64
2022/12/19 06:00:52;;;;;;;1.90;1.63;;;;;;;;;;7386133;19;20125;-63
2022/12/19 06:03:17;;;;;;;3.13;1.73;;;;;;;;;;7379118;19;20585;-65
2022/12/19 06:05:42;;;;;;;1.80;1.33;;;;;;;;;;7382244;19;20594;-63
2022/12/19 06:08:08;;;;;;;1.23;1.17;;;;;;;;;;7379660;19;20129;-63
2022/12/19 06:10:33;;;;;;;2.13;2.03;;;;;;;;;;7377115;19;20121;-63
2022/12/19 06:12:58;;;;;;;1.53;1.43;;;;;;;;;;7383536;19;20148;-63
2022/12/19 06:15:23;;;;;;;1.90;1.70;;;;;;;;;;7378649;19;20121;-63
2022/12/19 06:17:53;;;;;;;3.20;1.57;;;;;;;;;;7382047;19;20117;-63
2022/12/19 06:20:18;;;;;;;1.30;1.20;;;;;;;;;;7383536;19;21393;-63
2022/12/19 06:22:43;;;;;;;3.27;1.77;;;;;;;;;;7380047;19;20149;-63
2022/12/19 06:25:08;;;;;;;1.90;1.80;;;;;;;;;;7384898;19;20607;-63
2022/12/19 06:27:34;;;;;;;0.80;0.80;;;;;;;;;;7372968;19;20113;-63
2022/12/19 06:29:59;;;;;;;0.67;0.67;;;;;;;;;;7388701;19;20129;-63
2022/12/19 06:32:24;;;;;;;1.87;1.77;;;;;;;;;;7381002;19;20904;-63
2022/12/19 06:34:50;;;;;;;1.23;1.20;;;;;;;;;;7384813;19;20125;-63
2022/12/19 06:37:15;;;;;;;0.80;0.80;;;;;;;;;;7382020;19;20199;-63
2022/12/19 06:39:40;;;;;;;1.73;1.50;;;;;;;;;;7383792;19;20573;-63
2022/12/19 06:42:22;;;;;;;1.70;1.50;;;;;;;;;;7388473;19;20140;-63
2022/12/19 06:44:51;;;;;;;1.57;1.47;;;;;;;;;;7383875;19;20129;-63
2022/12/19 06:47:17;;;;;;;2.23;2.03;;;;;;;;;;7379328;19;20121;-63
2022/12/19 06:49:42;;;;;;;2.60;1.83;;;;;;;;;;7385617;19;20117;-63
2022/12/19 06:52:08;;;;;;;2.23;1.47;;;;;;;;;;7388391;19;20125;-63
2022/12/19 18:37:42;;;;;;;1.87;1.17;;;;;;;;;;7380280;19;20509;-63
2022/12/19 18:40:16;;;;;;;1.70;1.47;;;;;;;;;;7377158;19;20138;-63
2022/12/19 18:42:42;;;;;;;1.43;1.33;;;;;;;;;;7380151;19;20186;-63
2022/12/19 18:45:22;;;;;;;2.63;1.23;;;;;;;;;;7374704;19;20136;-63
2022/12/19 18:47:52;;;;;;;2.87;1.47;;;;;;;;;;7371154;19;20137;-63
2022/12/19 18:50:21;;;;;;;3.13;1.97;;;;;;;;;;7375756;19;20124;-63
2022/12/19 18:52:47;;;;;;;2.17;2.07;;;;;;;;;;7371644;19;20157;-63
2022/12/19 18:55:15;;;;;;;1.67;1.57;;;;;;;;;;7369880;19;20136;-63
2022/12/19 18:57:41;;;;;;;1.10;1.10;;;;;;;;;;7375095;19;20459;-63
2022/12/19 19:00:07;;;;;;;2.60;1.77;;;;;;;;;;7384989;19;20161;-63
2022/12/19 19:02:33;;;;;;;1.23;1.23;;;;;;;;;;7386262;19;21392;-63
2022/12/19 19:04:58;;;;;;;1.80;1.70;;;;;;;;;;7378974;19;20168;-63
2022/12/19 19:07:23;;;;;;;3.60;1.53;;;;;;;;;;7385577;19;20185;-63
2022/12/19 19:09:49;;;;;;;1.70;1.30;;;;;;;;;;7379590;19;20133;-63
2022/12/19 19:12:14;;;;;;;1.87;1.63;;;;;;;;;;7369780;19;20209;-63
2022/12/19 19:14:40;;;;;;;3.83;1.40;;;;;;;;;;7390807;19;20596;-63
2022/12/19 19:17:15;;;;;;;0.83;0.83;;;;;;;;;;7385556;19;20133;-63
2022/12/19 19:19:40;;;;;;;1.27;1.17;;;;;;;;;;7374514;19;20129;-63
2022/12/19 19:22:06;;;;;;;2.30;1.57;;;;;;;;;;7373587;19;20160;-63
2022/12/19 19:24:31;;;;;;;0.73;0.73;;;;;;;;;;7377401;19;20121;-63
2022/12/19 19:26:56;;;;;;;1.10;0.97;;;;;;;;;;7380321;19;20539;-63
2022/12/19 19:29:22;;;;;;;0.83;0.83;;;;;;;;;;7378610;19;20487;-63
2022/12/19 19:31:49;;;;;;;1.30;1.20;;;;;;;;;;7374982;19;20121;-63
2022/12/19 19:34:18;;;;;;;1.43;1.33;;;;;;;;;;7387777;19;20164;-63
2022/12/19 19:36:45;;;;;;;1.73;1.63;;;;;;;;;;7380656;19;20136;-63
2022/12/19 19:39:12;;;;;;;2.10;1.90;;;;;;;;;;7372967;19;20180;-63
2022/12/19 19:41:38;;;;;;;1.37;1.27;;;;;;;;;;7378587;19;20124;-63
2022/12/19 19:44:03;;;;;;;1.50;1.10;;;;;;;;;;7360438;19;20513;-63
2022/12/19 19:46:28;;;;;;;2.07;1.77;;;;;;;;;;7370815;19;20386;-63
2022/12/19 19:48:54;;;;;;;2.07;1.43;;;;;;;;;;7361919;19;20140;-63
2022/12/19 19:51:19;;;;;;;2.67;2.07;;;;;;;;;;7375555;19;20128;-63
2022/12/19 19:53:45;;;;;;;1.73;1.63;;;;;;;;;;7376190;19;20163;-65
2022/12/19 19:56:10;;;;;;;1.97;1.60;;;;;;;;;;7383528;19;20125;-63
2022/12/19 19:58:36;;;;;;;1.07;1.07;;;;;;;;;;7382311;19;20984;-63
2022/12/19 20:01:09;;;;;;;1.87;1.60;;;;;;;;;;7360345;19;20173;-64
2022/12/19 20:03:35;;;;;;;1.63;1.53;;;;;;;;;;7358615;19;20217;-63
2022/12/19 20:06:01;;;;;;;2.00;1.80;;;;;;;;;;7347982;19;20535;-64
2022/12/19 20:08:26;;;;;;;2.13;1.87;;;;;;;;;;7373448;19;20289;-63
2022/12/19 20:10:54;;;;;;;1.97;1.60;;;;;;;;;;7375171;19;20602;-63
2022/12/19 20:13:19;;;;;;;1.63;1.53;;;;;;;;;;7359984;19;20145;-64
2022/12/19 20:15:44;;;;;;;1.67;1.57;;;;;;;;;;7363303;19;20125;-63
2022/12/19 20:18:09;;;;;;;1.93;1.80;;;;;;;;;;7351042;19;20140;-63
2022/12/19 20:20:35;;;;;;;5.17;2.07;;;;;;;;;;7361567;19;20144;-63
2022/12/19 20:23:01;;;;;;;1.70;1.53;;;;;;;;;;7364177;19;20614;-63
2022/12/19 20:25:26;;;;;;;2.57;1.87;;;;;;;;;;7375042;19;20136;-63
2022/12/19 20:27:51;;;;;;;2.57;1.93;;;;;;;;;;7379318;19;20594;-63
2022/12/19 20:30:17;;;;;;;1.97;1.87;;;;;;;;;;7377135;19;20842;-63
2022/12/19 20:32:42;;;;;;;1.77;1.50;;;;;;;;;;7381015;19;20145;-63
2022/12/19 20:35:08;;;;;;;3.33;2.03;;;;;;;;;;7377287;19;20125;-62
2022/12/19 20:37:33;;;;;;;2.37;1.83;;;;;;;;;;7354178;19;20641;-62
2022/12/19 20:39:59;;;;;;;1.20;1.10;;;;;;;;;;7371103;19;20141;-63
2022/12/19 20:42:24;;;;;;;2.13;2.03;;;;;;;;;;7362496;19;20176;-63
2022/12/19 20:44:49;;;;;;;5.00;2.50;;;;;;;;;;7378861;19;20136;-63
2022/12/19 20:47:15;;;;;;;2.53;1.63;;;;;;;;;;7362418;19;20148;-63
2022/12/19 20:49:40;;;;;;;1.97;1.87;;;;;;;;;;7368401;19;20136;-63
2022/12/19 20:52:05;;;;;;;2.17;1.90;;;;;;;;;;7376704;19;20606;-63
2022/12/19 20:54:31;;;;;;;3.23;2.93;;;;;;;;;;7384751;19;20133;-63
2022/12/19 20:56:56;;;;;;;2.50;2.13;;;;;;;;;;7379866;19;20151;-63
2022/12/19 20:59:21;;;;;;;2.47;2.30;;;;;;;;;;7379644;19;20125;-63
2022/12/19 21:01:47;;;;;;;2.70;2.37;;;;;;;;;;7371959;19;20136;-63
2022/12/19 21:04:12;;;;;;;3.77;2.23;;;;;;;;;;7380232;19;20603;-63
2022/12/19 21:06:38;;;;;;;1.70;1.40;;;;;;;;;;7369064;19;20121;-63
2022/12/19 21:09:04;;;;;;;2.33;2.13;;;;;;;;;;7382345;19;20136;-63
2022/12/19 21:11:30;;;;;;;1.27;1.17;;;;;;;;;;7382941;19;20121;-63
2022/12/19 21:13:56;;;;;;;1.70;1.47;;;;;;;;;;7374482;19;20156;-64
2022/12/19 21:16:22;;;;;;;1.40;1.30;;;;;;;;;;7376355;19;20129;-63
2022/12/19 21:18:48;;;;;;;2.33;2.13;;;;;;;;;;7381117;19;20140;-64
2022/12/19 21:21:21;;;;;;;1.63;1.53;;;;;;;;;;7377726;19;20752;-64
2022/12/19 21:23:47;;;;;;;1.43;1.33;;;;;;;;;;7374333;19;20159;-64
2022/12/19 21:26:12;;;;;;;1.97;1.60;;;;;;;;;;7360195;19;20201;-63
2022/12/19 21:28:38;;;;;;;1.73;1.63;;;;;;;;;;7377949;19;20141;-63
2022/12/19 21:31:06;;;;;;;3.03;1.97;;;;;;;;;;7370350;19;20192;-63
2022/12/19 21:33:32;;;;;;;2.67;2.47;;;;;;;;;;7369988;19;20169;-63
2022/12/19 21:36:04;;;;;;;2.17;1.97;;;;;;;;;;7368365;19;20153;-64
2022/12/19 21:38:30;;;;;;;1.93;1.83;;;;;;;;;;7372257;19;20717;-63
2022/12/19 21:40:55;;;;;;;1.70;1.60;;;;;;;;;;7375614;19;20124;-63
2022/12/19 21:43:20;;;;;;;1.00;1.00;;;;;;;;;;7377829;19;20152;-63
2022/12/19 21:45:45;;;;;;;2.17;2.07;;;;;;;;;;7371400;19;20139;-63
2022/12/19 21:48:11;;;;;;;1.60;1.50;;;;;;;;;;7378921;19;20132;-63
2022/12/19 21:50:36;;;;;;;2.53;2.03;;;;;;;;;;7377694;19;20117;-63
2022/12/19 21:53:01;;;;;;;2.97;1.47;;;;;;;;;;7368579;19;20153;-63
2022/12/19 21:55:27;;;;;;;1.60;1.50;;;;;;;;;;7378707;19;20185;-63
2022/12/19 21:57:52;;;;;;;1.40;1.30;;;;;;;;;;7380032;19;20121;-63
2022/12/19 22:00:18;;;;;;;1.73;1.47;;;;;;;;;;7378761;19;20561;-63
2022/12/19 22:02:46;;;;;;;1.97;1.87;;;;;;;;;;7381100;19;20165;-63
2022/12/19 22:05:11;;;;;;;3.07;2.17;;;;;;;;;;7378556;19;20117;-63
2022/12/19 22:07:37;;;;;;;3.70;1.80;;;;;;;;;;7379690;19;20124;-63
2022/12/19 22:10:02;;;;;;;2.77;2.50;;;;;;;;;;7380989;19;20452;-63
2022/12/19 22:12:27;;;;;;;1.93;1.83;;;;;;;;;;7380123;19;20641;-63
2022/12/19 22:14:53;;;;;;;3.23;1.77;;;;;;;;;;7367806;19;20133;-63
2022/12/19 22:17:18;;;;;;;3.67;2.60;;;;;;;;;;7375843;19;20128;-63
2022/12/19 22:19:43;;;;;;;2.20;2.00;;;;;;;;;;7380223;19;20128;-63
2022/12/19 22:22:09;;;;;;;2.37;2.17;;;;;;;;;;7378656;19;20196;-63
2022/12/19 22:24:34;;;;;;;3.00;2.60;;;;;;;;;;7379163;19;20512;-63
2022/12/19 22:27:00;;;;;;;1.23;1.13;;;;;;;;;;7362557;19;20152;-63
2022/12/19 22:29:25;;;;;;;7.23;2.90;;;;;;;;;;7365576;19;20120;-63
2022/12/19 22:31:50;;;;;;;5.33;2.27;;;;;;;;;;7367833;19;20112;-63
2022/12/19 22:34:18;;;;;;;3.10;2.43;;;;;;;;;;7362232;19;20127;-63
2022/12/19 22:36:44;;;;;;;2.20;2.00;;;;;;;;;;7361314;19;20137;-63
2022/12/19 22:39:13;;;;;;;2.27;1.70;;;;;;;;;;7370963;19;20129;-63
2022/12/19 22:41:39;;;;;;;1.93;1.77;;;;;;;;;;7373452;19;20628;-63
2022/12/19 22:44:05;;;;;;;1.20;1.00;;;;;;;;;;7377110;19;20236;-63
2022/12/19 22:46:33;;;;;;;1.33;1.23;;;;;;;;;;7379122;19;21913;-63
2022/12/19 22:49:01;;;;;;;1.90;1.80;;;;;;;;;;7381542;19;20609;-63
2022/12/19 22:51:27;;;;;;;2.20;1.63;;;;;;;;;;7365458;19;20590;-63
2022/12/19 22:53:53;;;;;;;2.00;1.57;;;;;;;;;;7376050;19;20626;-63
2022/12/19 22:56:22;;;;;;;5.23;2.13;;;;;;;;;;7371680;19;20129;-63
2022/12/19 22:58:50;;;;;;;3.50;2.50;;;;;;;;;;7371908;19;20489;-63
2022/12/19 23:01:24;;;;;;;2.30;2.10;;;;;;;;;;7377759;19;20788;-63
2022/12/19 23:03:52;;;;;;;6.30;2.27;;;;;;;;;;7363300;19;20156;-63
2022/12/19 23:06:19;;;;;;;2.10;1.40;;;;;;;;;;7360332;19;20168;-64
2022/12/19 23:08:45;;;;;;;2.20;1.70;;;;;;;;;;7363639;19;20129;-63
2022/12/19 23:11:13;;;;;;;1.37;1.27;;;;;;;;;;7356653;19;20128;-63
2022/12/19 23:13:39;;;;;;;2.17;1.90;;;;;;;;;;7356497;19;20689;-63
2022/12/19 23:16:05;;;;;;;1.90;1.80;;;;;;;;;;7347372;19;20187;-63
2022/12/19 23:18:30;;;;;;;1.67;1.57;;;;;;;;;;7355641;19;20129;-63
2022/12/19 23:21:09;;;;;;;1.57;1.47;;;;;;;;;;7353238;19;20125;-63
2022/12/19 23:23:38;;;;;;;2.03;1.87;;;;;;;;;;7346372;19;20656;-63
2022/12/19 23:26:04;;;;;;;2.23;2.03;;;;;;;;;;7362773;19;20133;-64
2022/12/19 23:28:29;;;;;;;3.77;2.47;;;;;;;;;;7376917;19;20128;-63
2022/12/19 23:31:06;;;;;;;4.73;1.80;;;;;;;;;;7372795;19;20125;-63
2022/12/19 23:33:31;;;;;;;3.27;2.73;;;;;;;;;;7374567;19;20152;-63
2022/12/19 23:35:57;;;;;;;3.00;2.57;;;;;;;;;;7359225;19;20157;-63
2022/12/19 23:38:22;;;;;;;4.47;2.47;;;;;;;;;;7368132;19;20156;-63
2022/12/19 23:40:48;;;;;;;3.27;2.07;;;;;;;;;;7352340;19;20137;-63
2022/12/19 23:43:14;;;;;;;2.67;1.57;;;;;;;;;;7368811;19;20172;-63
2022/12/19 23:45:39;;;;;;;3.87;1.87;;;;;;;;;;7377323;19;20137;-63
2022/12/19 23:48:04;;;;;;;2.07;1.80;;;;;;;;;;7363426;19;20132;-63
2022/12/19 23:50:30;;;;;;;1.37;1.37;;;;;;;;;;7370719;19;20134;-63
2022/12/19 23:52:55;;;;;;;2.47;1.97;;;;;;;;;;7386748;19;20160;-63
2022/12/19 23:55:20;;;;;;;2.27;2.17;;;;;;;;;;7386688;19;20129;-64
2022/12/19 23:57:45;;;;;;;3.53;2.07;;;;;;;;;;7384357;19;20132;-63
